<?xml version="1.0" encoding="UTF-8" standalone="no" ?>
<gpx xmlns="http://www.topografix.com/GPX/1/1" xmlns:xsi="http://www.w3.org/2001/XMLSchema-instance" xsi:schemaLocation="http://www.topografix.com/GPX/1/1 http://www.topografix.com/GPX/1/1/gpx.xsd" version="1.1" creator="VisuGPX - https://www.visugpx.com">
  <metadata>
    <name>Le Villard</name>
    <desc><![CDATA[Au départ de Ceillac, randonnée de découverte de la vallée du Cristillan jusqu'au Villard.]]></desc>
  </metadata>
  <trk>
    <name><![CDATA[Le Villard_1]]></name>
    <trkseg>
      <trkpt lat="44.67103" lon="6.77702">
        <ele>1671.1</ele>
        <time>2021-03-14T12:43:27Z</time>
      </trkpt>
      <trkpt lat="44.67081" lon="6.77745">
        <ele>1669.2</ele>
        <time>2021-03-14T12:43:57Z</time>
      </trkpt>
      <trkpt lat="44.67076" lon="6.7778">
        <ele>1668.4</ele>
        <time>2021-03-14T12:44:27Z</time>
      </trkpt>
      <trkpt lat="44.67075" lon="6.77817">
        <ele>1667.9</ele>
        <time>2021-03-14T12:44:58Z</time>
      </trkpt>
      <trkpt lat="44.67087" lon="6.77853">
        <ele>1671.5</ele>
        <time>2021-03-14T12:45:28Z</time>
      </trkpt>
      <trkpt lat="44.67083" lon="6.77886">
        <ele>1674</ele>
        <time>2021-03-14T12:45:59Z</time>
      </trkpt>
      <trkpt lat="44.67068" lon="6.77921">
        <ele>1674.5</ele>
        <time>2021-03-14T12:46:30Z</time>
      </trkpt>
      <trkpt lat="44.67053" lon="6.77958">
        <ele>1676.1</ele>
        <time>2021-03-14T12:47:01Z</time>
      </trkpt>
      <trkpt lat="44.67045" lon="6.77993">
        <ele>1677.9</ele>
        <time>2021-03-14T12:47:31Z</time>
      </trkpt>
      <trkpt lat="44.67042" lon="6.7803">
        <ele>1677.6</ele>
        <time>2021-03-14T12:48:01Z</time>
      </trkpt>
      <trkpt lat="44.6705" lon="6.78056">
        <ele>1680</ele>
        <time>2021-03-14T12:48:32Z</time>
      </trkpt>
      <trkpt lat="44.67049" lon="6.78055">
        <ele>1679.7</ele>
        <time>2021-03-14T12:49:03Z</time>
      </trkpt>
      <trkpt lat="44.67049" lon="6.78055">
        <ele>1679.7</ele>
        <time>2021-03-14T12:49:33Z</time>
      </trkpt>
      <trkpt lat="44.67049" lon="6.78055">
        <ele>1679.7</ele>
        <time>2021-03-14T12:50:04Z</time>
      </trkpt>
      <trkpt lat="44.67049" lon="6.78055">
        <ele>1679.7</ele>
        <time>2021-03-14T12:50:35Z</time>
      </trkpt>
      <trkpt lat="44.67049" lon="6.78055">
        <ele>1679.7</ele>
        <time>2021-03-14T12:51:06Z</time>
      </trkpt>
      <trkpt lat="44.67049" lon="6.78055">
        <ele>1679.7</ele>
        <time>2021-03-14T12:51:36Z</time>
      </trkpt>
      <trkpt lat="44.67052" lon="6.7806">
        <ele>1680.6</ele>
        <time>2021-03-14T12:52:07Z</time>
      </trkpt>
      <trkpt lat="44.67077" lon="6.78079">
        <ele>1687.4</ele>
        <time>2021-03-14T12:52:38Z</time>
      </trkpt>
      <trkpt lat="44.67098" lon="6.78092">
        <ele>1693.8</ele>
        <time>2021-03-14T12:53:09Z</time>
      </trkpt>
      <trkpt lat="44.67117" lon="6.78115">
        <ele>1699.5</ele>
        <time>2021-03-14T12:53:39Z</time>
      </trkpt>
      <trkpt lat="44.6712" lon="6.78095">
        <ele>1701.9</ele>
        <time>2021-03-14T12:54:10Z</time>
      </trkpt>
      <trkpt lat="44.67106" lon="6.78061">
        <ele>1697.7</ele>
        <time>2021-03-14T12:54:40Z</time>
      </trkpt>
      <trkpt lat="44.67108" lon="6.78025">
        <ele>1698.8</ele>
        <time>2021-03-14T12:55:10Z</time>
      </trkpt>
      <trkpt lat="44.67119" lon="6.77989">
        <ele>1700</ele>
        <time>2021-03-14T12:55:41Z</time>
      </trkpt>
      <trkpt lat="44.67143" lon="6.77979">
        <ele>1704.3</ele>
        <time>2021-03-14T12:56:12Z</time>
      </trkpt>
      <trkpt lat="44.67169" lon="6.77988">
        <ele>1713.7</ele>
        <time>2021-03-14T12:56:43Z</time>
      </trkpt>
      <trkpt lat="44.67196" lon="6.77975">
        <ele>1718.8</ele>
        <time>2021-03-14T12:57:13Z</time>
      </trkpt>
      <trkpt lat="44.67212" lon="6.77951">
        <ele>1717.1</ele>
        <time>2021-03-14T12:57:43Z</time>
      </trkpt>
      <trkpt lat="44.67225" lon="6.77954">
        <ele>1721.8</ele>
        <time>2021-03-14T12:58:14Z</time>
      </trkpt>
      <trkpt lat="44.67202" lon="6.7798">
        <ele>1722</ele>
        <time>2021-03-14T12:58:45Z</time>
      </trkpt>
      <trkpt lat="44.67182" lon="6.78004">
        <ele>1721.2</ele>
        <time>2021-03-14T12:59:16Z</time>
      </trkpt>
      <trkpt lat="44.67167" lon="6.78019">
        <ele>1717</ele>
        <time>2021-03-14T12:59:46Z</time>
      </trkpt>
      <trkpt lat="44.67166" lon="6.78026">
        <ele>1717</ele>
        <time>2021-03-14T13:00:17Z</time>
      </trkpt>
      <trkpt lat="44.67179" lon="6.78053">
        <ele>1722.5</ele>
        <time>2021-03-14T13:00:47Z</time>
      </trkpt>
      <trkpt lat="44.67202" lon="6.78071">
        <ele>1730.9</ele>
        <time>2021-03-14T13:01:18Z</time>
      </trkpt>
      <trkpt lat="44.67223" lon="6.78091">
        <ele>1738.3</ele>
        <time>2021-03-14T13:01:49Z</time>
      </trkpt>
      <trkpt lat="44.67243" lon="6.78118">
        <ele>1745.4</ele>
        <time>2021-03-14T13:02:19Z</time>
      </trkpt>
      <trkpt lat="44.6724" lon="6.78118">
        <ele>1744.3</ele>
        <time>2021-03-14T13:02:50Z</time>
      </trkpt>
      <trkpt lat="44.67256" lon="6.78147">
        <ele>1751</ele>
        <time>2021-03-14T13:03:20Z</time>
      </trkpt>
      <trkpt lat="44.67232" lon="6.78172">
        <ele>1742.7</ele>
        <time>2021-03-14T13:03:51Z</time>
      </trkpt>
      <trkpt lat="44.67223" lon="6.78202">
        <ele>1742.6</ele>
        <time>2021-03-14T13:04:21Z</time>
      </trkpt>
      <trkpt lat="44.67223" lon="6.78237">
        <ele>1746.6</ele>
        <time>2021-03-14T13:04:51Z</time>
      </trkpt>
      <trkpt lat="44.6723" lon="6.78271">
        <ele>1749.4</ele>
        <time>2021-03-14T13:05:22Z</time>
      </trkpt>
      <trkpt lat="44.67233" lon="6.783">
        <ele>1748</ele>
        <time>2021-03-14T13:05:52Z</time>
      </trkpt>
      <trkpt lat="44.67246" lon="6.78331">
        <ele>1751.3</ele>
        <time>2021-03-14T13:06:22Z</time>
      </trkpt>
      <trkpt lat="44.67272" lon="6.7833">
        <ele>1763.8</ele>
        <time>2021-03-14T13:06:53Z</time>
      </trkpt>
      <trkpt lat="44.67284" lon="6.78347">
        <ele>1766.3</ele>
        <time>2021-03-14T13:07:24Z</time>
      </trkpt>
      <trkpt lat="44.67285" lon="6.78359">
        <ele>1764.1</ele>
        <time>2021-03-14T13:07:54Z</time>
      </trkpt>
      <trkpt lat="44.673" lon="6.78384">
        <ele>1765.8</ele>
        <time>2021-03-14T13:08:25Z</time>
      </trkpt>
      <trkpt lat="44.67316" lon="6.784">
        <ele>1770.1</ele>
        <time>2021-03-14T13:08:56Z</time>
      </trkpt>
      <trkpt lat="44.67331" lon="6.78432">
        <ele>1772</ele>
        <time>2021-03-14T13:09:27Z</time>
      </trkpt>
      <trkpt lat="44.67333" lon="6.78471">
        <ele>1768.3</ele>
        <time>2021-03-14T13:09:57Z</time>
      </trkpt>
      <trkpt lat="44.67346" lon="6.78504">
        <ele>1771</ele>
        <time>2021-03-14T13:10:28Z</time>
      </trkpt>
      <trkpt lat="44.67357" lon="6.78545">
        <ele>1772.3</ele>
        <time>2021-03-14T13:10:59Z</time>
      </trkpt>
      <trkpt lat="44.67376" lon="6.78566">
        <ele>1779.4</ele>
        <time>2021-03-14T13:11:29Z</time>
      </trkpt>
      <trkpt lat="44.67378" lon="6.78596">
        <ele>1776.9</ele>
        <time>2021-03-14T13:11:59Z</time>
      </trkpt>
      <trkpt lat="44.67371" lon="6.78631">
        <ele>1768.9</ele>
        <time>2021-03-14T13:12:29Z</time>
      </trkpt>
      <trkpt lat="44.67384" lon="6.78654">
        <ele>1772.9</ele>
        <time>2021-03-14T13:13:00Z</time>
      </trkpt>
      <trkpt lat="44.67385" lon="6.78653">
        <ele>1773.5</ele>
        <time>2021-03-14T13:13:30Z</time>
      </trkpt>
      <trkpt lat="44.67405" lon="6.78676">
        <ele>1781</ele>
        <time>2021-03-14T13:14:00Z</time>
      </trkpt>
      <trkpt lat="44.6742" lon="6.78691">
        <ele>1785.8</ele>
        <time>2021-03-14T13:14:31Z</time>
      </trkpt>
      <trkpt lat="44.67444" lon="6.78717">
        <ele>1791.7</ele>
        <time>2021-03-14T13:15:01Z</time>
      </trkpt>
      <trkpt lat="44.67459" lon="6.78742">
        <ele>1794.2</ele>
        <time>2021-03-14T13:15:32Z</time>
      </trkpt>
      <trkpt lat="44.67466" lon="6.78781">
        <ele>1793.3</ele>
        <time>2021-03-14T13:16:03Z</time>
      </trkpt>
      <trkpt lat="44.67467" lon="6.78823">
        <ele>1790.1</ele>
        <time>2021-03-14T13:16:34Z</time>
      </trkpt>
      <trkpt lat="44.67473" lon="6.78858">
        <ele>1790.8</ele>
        <time>2021-03-14T13:17:04Z</time>
      </trkpt>
      <trkpt lat="44.6749" lon="6.78887">
        <ele>1797.9</ele>
        <time>2021-03-14T13:17:34Z</time>
      </trkpt>
      <trkpt lat="44.67508" lon="6.78904">
        <ele>1805.8</ele>
        <time>2021-03-14T13:18:05Z</time>
      </trkpt>
      <trkpt lat="44.67525" lon="6.78933">
        <ele>1813.4</ele>
        <time>2021-03-14T13:18:36Z</time>
      </trkpt>
      <trkpt lat="44.67529" lon="6.78957">
        <ele>1815.8</ele>
        <time>2021-03-14T13:19:07Z</time>
      </trkpt>
      <trkpt lat="44.67531" lon="6.78968">
        <ele>1817</ele>
        <time>2021-03-14T13:19:37Z</time>
      </trkpt>
      <trkpt lat="44.67529" lon="6.78995">
        <ele>1816.7</ele>
        <time>2021-03-14T13:20:07Z</time>
      </trkpt>
      <trkpt lat="44.6752" lon="6.79029">
        <ele>1813.4</ele>
        <time>2021-03-14T13:20:37Z</time>
      </trkpt>
      <trkpt lat="44.67537" lon="6.79057">
        <ele>1820.5</ele>
        <time>2021-03-14T13:21:08Z</time>
      </trkpt>
      <trkpt lat="44.67552" lon="6.79091">
        <ele>1826.4</ele>
        <time>2021-03-14T13:21:39Z</time>
      </trkpt>
      <trkpt lat="44.6755" lon="6.79129">
        <ele>1824.6</ele>
        <time>2021-03-14T13:22:10Z</time>
      </trkpt>
      <trkpt lat="44.67543" lon="6.79176">
        <ele>1820.1</ele>
        <time>2021-03-14T13:22:41Z</time>
      </trkpt>
      <trkpt lat="44.67538" lon="6.79222">
        <ele>1815.9</ele>
        <time>2021-03-14T13:23:12Z</time>
      </trkpt>
      <trkpt lat="44.6754" lon="6.79252">
        <ele>1815.1</ele>
        <time>2021-03-14T13:23:43Z</time>
      </trkpt>
      <trkpt lat="44.67555" lon="6.7929">
        <ele>1815.4</ele>
        <time>2021-03-14T13:24:14Z</time>
      </trkpt>
      <trkpt lat="44.67577" lon="6.79328">
        <ele>1817.6</ele>
        <time>2021-03-14T13:24:45Z</time>
      </trkpt>
      <trkpt lat="44.67595" lon="6.79367">
        <ele>1820.8</ele>
        <time>2021-03-14T13:25:16Z</time>
      </trkpt>
      <trkpt lat="44.67617" lon="6.79402">
        <ele>1825.9</ele>
        <time>2021-03-14T13:25:47Z</time>
      </trkpt>
      <trkpt lat="44.67634" lon="6.79441">
        <ele>1828.6</ele>
        <time>2021-03-14T13:26:18Z</time>
      </trkpt>
      <trkpt lat="44.67646" lon="6.79477">
        <ele>1829.7</ele>
        <time>2021-03-14T13:26:49Z</time>
      </trkpt>
      <trkpt lat="44.67648" lon="6.79491">
        <ele>1829.3</ele>
        <time>2021-03-14T13:27:25Z</time>
      </trkpt>
      <trkpt lat="44.67656" lon="6.79531">
        <ele>1831.3</ele>
        <time>2021-03-14T13:27:56Z</time>
      </trkpt>
      <trkpt lat="44.67659" lon="6.79572">
        <ele>1832.6</ele>
        <time>2021-03-14T13:28:26Z</time>
      </trkpt>
      <trkpt lat="44.67671" lon="6.79604">
        <ele>1837.3</ele>
        <time>2021-03-14T13:28:56Z</time>
      </trkpt>
      <trkpt lat="44.67676" lon="6.79625">
        <ele>1838.8</ele>
        <time>2021-03-14T13:29:27Z</time>
      </trkpt>
      <trkpt lat="44.67684" lon="6.79661">
        <ele>1841.1</ele>
        <time>2021-03-14T13:29:58Z</time>
      </trkpt>
      <trkpt lat="44.67685" lon="6.79704">
        <ele>1839.6</ele>
        <time>2021-03-14T13:30:28Z</time>
      </trkpt>
      <trkpt lat="44.67694" lon="6.79741">
        <ele>1840.7</ele>
        <time>2021-03-14T13:30:58Z</time>
      </trkpt>
      <trkpt lat="44.67706" lon="6.7978">
        <ele>1841.5</ele>
        <time>2021-03-14T13:31:28Z</time>
      </trkpt>
      <trkpt lat="44.67722" lon="6.79817">
        <ele>1842.7</ele>
        <time>2021-03-14T13:31:59Z</time>
      </trkpt>
      <trkpt lat="44.6774" lon="6.79852">
        <ele>1843.9</ele>
        <time>2021-03-14T13:32:29Z</time>
      </trkpt>
      <trkpt lat="44.67764" lon="6.79884">
        <ele>1849.6</ele>
        <time>2021-03-14T13:32:59Z</time>
      </trkpt>
      <trkpt lat="44.67774" lon="6.79928">
        <ele>1852.2</ele>
        <time>2021-03-14T13:33:30Z</time>
      </trkpt>
      <trkpt lat="44.67776" lon="6.79975">
        <ele>1854.5</ele>
        <time>2021-03-14T13:34:01Z</time>
      </trkpt>
      <trkpt lat="44.67764" lon="6.80019">
        <ele>1850.9</ele>
        <time>2021-03-14T13:34:32Z</time>
      </trkpt>
      <trkpt lat="44.67753" lon="6.80043">
        <ele>1847.3</ele>
        <time>2021-03-14T13:35:03Z</time>
      </trkpt>
      <trkpt lat="44.67737" lon="6.80065">
        <ele>1844.2</ele>
        <time>2021-03-14T13:35:33Z</time>
      </trkpt>
      <trkpt lat="44.67723" lon="6.80107">
        <ele>1843.7</ele>
        <time>2021-03-14T13:36:04Z</time>
      </trkpt>
      <trkpt lat="44.67717" lon="6.80153">
        <ele>1845.5</ele>
        <time>2021-03-14T13:36:34Z</time>
      </trkpt>
      <trkpt lat="44.67718" lon="6.80186">
        <ele>1848.2</ele>
        <time>2021-03-14T13:37:05Z</time>
      </trkpt>
      <trkpt lat="44.67716" lon="6.80199">
        <ele>1849</ele>
        <time>2021-03-14T13:38:23Z</time>
      </trkpt>
      <trkpt lat="44.6771" lon="6.8021">
        <ele>1848.9</ele>
        <time>2021-03-14T13:39:58Z</time>
      </trkpt>
      <trkpt lat="44.67693" lon="6.80237">
        <ele>1848.3</ele>
        <time>2021-03-14T13:40:28Z</time>
      </trkpt>
      <trkpt lat="44.67689" lon="6.80249">
        <ele>1848.7</ele>
        <time>2021-03-14T13:41:06Z</time>
      </trkpt>
      <trkpt lat="44.67676" lon="6.80276">
        <ele>1848.1</ele>
        <time>2021-03-14T13:41:37Z</time>
      </trkpt>
      <trkpt lat="44.6767" lon="6.80318">
        <ele>1849.6</ele>
        <time>2021-03-14T13:42:08Z</time>
      </trkpt>
      <trkpt lat="44.67673" lon="6.8033">
        <ele>1850.9</ele>
        <time>2021-03-14T13:43:01Z</time>
      </trkpt>
      <trkpt lat="44.67656" lon="6.80366">
        <ele>1850.3</ele>
        <time>2021-03-14T13:43:32Z</time>
      </trkpt>
      <trkpt lat="44.67637" lon="6.804">
        <ele>1849.9</ele>
        <time>2021-03-14T13:44:03Z</time>
      </trkpt>
      <trkpt lat="44.67618" lon="6.80423">
        <ele>1849.8</ele>
        <time>2021-03-14T13:44:33Z</time>
      </trkpt>
      <trkpt lat="44.67592" lon="6.80429">
        <ele>1847.6</ele>
        <time>2021-03-14T13:45:04Z</time>
      </trkpt>
      <trkpt lat="44.67583" lon="6.80437">
        <ele>1848.1</ele>
        <time>2021-03-14T13:45:38Z</time>
      </trkpt>
      <trkpt lat="44.67571" lon="6.80449">
        <ele>1847.2</ele>
        <time>2021-03-14T13:46:09Z</time>
      </trkpt>
      <trkpt lat="44.67556" lon="6.80482">
        <ele>1849.6</ele>
        <time>2021-03-14T13:46:39Z</time>
      </trkpt>
      <trkpt lat="44.67536" lon="6.80494">
        <ele>1846.2</ele>
        <time>2021-03-14T13:47:10Z</time>
      </trkpt>
      <trkpt lat="44.67527" lon="6.80496">
        <ele>1844</ele>
        <time>2021-03-14T13:48:13Z</time>
      </trkpt>
      <trkpt lat="44.67507" lon="6.8052">
        <ele>1843.6</ele>
        <time>2021-03-14T13:48:44Z</time>
      </trkpt>
      <trkpt lat="44.67494" lon="6.80559">
        <ele>1848.6</ele>
        <time>2021-03-14T13:49:14Z</time>
      </trkpt>
      <trkpt lat="44.67475" lon="6.80595">
        <ele>1848.9</ele>
        <time>2021-03-14T13:49:45Z</time>
      </trkpt>
      <trkpt lat="44.67458" lon="6.80629">
        <ele>1848</ele>
        <time>2021-03-14T13:50:16Z</time>
      </trkpt>
      <trkpt lat="44.67451" lon="6.80667">
        <ele>1850.9</ele>
        <time>2021-03-14T13:50:46Z</time>
      </trkpt>
      <trkpt lat="44.67445" lon="6.80705">
        <ele>1853.9</ele>
        <time>2021-03-14T13:51:16Z</time>
      </trkpt>
      <trkpt lat="44.67433" lon="6.80743">
        <ele>1853.6</ele>
        <time>2021-03-14T13:51:47Z</time>
      </trkpt>
      <trkpt lat="44.67423" lon="6.8078">
        <ele>1856.3</ele>
        <time>2021-03-14T13:52:17Z</time>
      </trkpt>
      <trkpt lat="44.67403" lon="6.80805">
        <ele>1855.7</ele>
        <time>2021-03-14T13:52:48Z</time>
      </trkpt>
      <trkpt lat="44.67376" lon="6.80818">
        <ele>1850.9</ele>
        <time>2021-03-14T13:53:18Z</time>
      </trkpt>
      <trkpt lat="44.67358" lon="6.80853">
        <ele>1850.4</ele>
        <time>2021-03-14T13:53:49Z</time>
      </trkpt>
      <trkpt lat="44.67348" lon="6.80886">
        <ele>1852.2</ele>
        <time>2021-03-14T13:54:20Z</time>
      </trkpt>
      <trkpt lat="44.67339" lon="6.80918">
        <ele>1854.5</ele>
        <time>2021-03-14T13:54:50Z</time>
      </trkpt>
      <trkpt lat="44.67343" lon="6.8093">
        <ele>1856.5</ele>
        <time>2021-03-14T13:56:24Z</time>
      </trkpt>
      <trkpt lat="44.67337" lon="6.80941">
        <ele>1856</ele>
        <time>2021-03-14T13:57:05Z</time>
      </trkpt>
      <trkpt lat="44.67342" lon="6.80954">
        <ele>1858.3</ele>
        <time>2021-03-14T13:57:36Z</time>
      </trkpt>
      <trkpt lat="44.67336" lon="6.8094">
        <ele>1855.6</ele>
        <time>2021-03-14T13:58:07Z</time>
      </trkpt>
      <trkpt lat="44.67343" lon="6.8093">
        <ele>1856.5</ele>
        <time>2021-03-14T13:58:47Z</time>
      </trkpt>
      <trkpt lat="44.67333" lon="6.80927">
        <ele>1853.8</ele>
        <time>2021-03-14T14:01:22Z</time>
      </trkpt>
      <trkpt lat="44.67323" lon="6.80917">
        <ele>1851.5</ele>
        <time>2021-03-14T14:01:52Z</time>
      </trkpt>
      <trkpt lat="44.67319" lon="6.80906">
        <ele>1849.7</ele>
        <time>2021-03-14T14:03:14Z</time>
      </trkpt>
      <trkpt lat="44.67306" lon="6.80895">
        <ele>1847.3</ele>
        <time>2021-03-14T14:03:44Z</time>
      </trkpt>
      <trkpt lat="44.67295" lon="6.80886">
        <ele>1845.9</ele>
        <time>2021-03-14T14:04:14Z</time>
      </trkpt>
      <trkpt lat="44.67286" lon="6.80881">
        <ele>1845.2</ele>
        <time>2021-03-14T14:04:52Z</time>
      </trkpt>
      <trkpt lat="44.67279" lon="6.80871">
        <ele>1844.8</ele>
        <time>2021-03-14T14:05:23Z</time>
      </trkpt>
      <trkpt lat="44.67282" lon="6.80859">
        <ele>1844.7</ele>
        <time>2021-03-14T14:07:42Z</time>
      </trkpt>
      <trkpt lat="44.67293" lon="6.80839">
        <ele>1843.6</ele>
        <time>2021-03-14T14:08:12Z</time>
      </trkpt>
      <trkpt lat="44.67294" lon="6.80823">
        <ele>1844.1</ele>
        <time>2021-03-14T14:08:43Z</time>
      </trkpt>
      <trkpt lat="44.67314" lon="6.80806">
        <ele>1841.6</ele>
        <time>2021-03-14T14:09:13Z</time>
      </trkpt>
      <trkpt lat="44.6733" lon="6.8079">
        <ele>1837.7</ele>
        <time>2021-03-14T14:09:43Z</time>
      </trkpt>
      <trkpt lat="44.67352" lon="6.80774">
        <ele>1839.3</ele>
        <time>2021-03-14T14:10:14Z</time>
      </trkpt>
      <trkpt lat="44.67366" lon="6.8075">
        <ele>1838.7</ele>
        <time>2021-03-14T14:10:45Z</time>
      </trkpt>
      <trkpt lat="44.67385" lon="6.80733">
        <ele>1840.2</ele>
        <time>2021-03-14T14:11:15Z</time>
      </trkpt>
      <trkpt lat="44.67401" lon="6.80708">
        <ele>1839.1</ele>
        <time>2021-03-14T14:11:45Z</time>
      </trkpt>
      <trkpt lat="44.6741" lon="6.80681">
        <ele>1836.1</ele>
        <time>2021-03-14T14:12:15Z</time>
      </trkpt>
      <trkpt lat="44.67417" lon="6.8064">
        <ele>1831.3</ele>
        <time>2021-03-14T14:12:46Z</time>
      </trkpt>
      <trkpt lat="44.6742" lon="6.80599">
        <ele>1828</ele>
        <time>2021-03-14T14:13:16Z</time>
      </trkpt>
      <trkpt lat="44.67435" lon="6.80561">
        <ele>1830.1</ele>
        <time>2021-03-14T14:13:47Z</time>
      </trkpt>
      <trkpt lat="44.67452" lon="6.80529">
        <ele>1831.8</ele>
        <time>2021-03-14T14:14:18Z</time>
      </trkpt>
      <trkpt lat="44.67464" lon="6.80489">
        <ele>1829.8</ele>
        <time>2021-03-14T14:14:49Z</time>
      </trkpt>
      <trkpt lat="44.67467" lon="6.80476">
        <ele>1829.2</ele>
        <time>2021-03-14T14:15:28Z</time>
      </trkpt>
      <trkpt lat="44.67472" lon="6.80439">
        <ele>1826.4</ele>
        <time>2021-03-14T14:15:59Z</time>
      </trkpt>
      <trkpt lat="44.67476" lon="6.80404">
        <ele>1823.6</ele>
        <time>2021-03-14T14:16:30Z</time>
      </trkpt>
      <trkpt lat="44.67489" lon="6.80375">
        <ele>1820.3</ele>
        <time>2021-03-14T14:17:01Z</time>
      </trkpt>
      <trkpt lat="44.6748" lon="6.80379">
        <ele>1822</ele>
        <time>2021-03-14T14:17:51Z</time>
      </trkpt>
      <trkpt lat="44.67489" lon="6.80373">
        <ele>1820.2</ele>
        <time>2021-03-14T14:18:25Z</time>
      </trkpt>
      <trkpt lat="44.67504" lon="6.80335">
        <ele>1816.1</ele>
        <time>2021-03-14T14:18:55Z</time>
      </trkpt>
      <trkpt lat="44.67503" lon="6.80293">
        <ele>1814.2</ele>
        <time>2021-03-14T14:19:25Z</time>
      </trkpt>
      <trkpt lat="44.67503" lon="6.80241">
        <ele>1812.2</ele>
        <time>2021-03-14T14:19:56Z</time>
      </trkpt>
      <trkpt lat="44.67496" lon="6.80194">
        <ele>1810.8</ele>
        <time>2021-03-14T14:20:27Z</time>
      </trkpt>
      <trkpt lat="44.67496" lon="6.80149">
        <ele>1808.5</ele>
        <time>2021-03-14T14:20:57Z</time>
      </trkpt>
      <trkpt lat="44.67497" lon="6.80102">
        <ele>1805.4</ele>
        <time>2021-03-14T14:21:27Z</time>
      </trkpt>
      <trkpt lat="44.67513" lon="6.80066">
        <ele>1804.3</ele>
        <time>2021-03-14T14:21:57Z</time>
      </trkpt>
      <trkpt lat="44.67511" lon="6.80027">
        <ele>1802.5</ele>
        <time>2021-03-14T14:22:28Z</time>
      </trkpt>
      <trkpt lat="44.67503" lon="6.80019">
        <ele>1801.1</ele>
        <time>2021-03-14T14:23:44Z</time>
      </trkpt>
      <trkpt lat="44.67497" lon="6.79979">
        <ele>1800.1</ele>
        <time>2021-03-14T14:24:14Z</time>
      </trkpt>
      <trkpt lat="44.67497" lon="6.79931">
        <ele>1797.2</ele>
        <time>2021-03-14T14:24:45Z</time>
      </trkpt>
      <trkpt lat="44.67504" lon="6.79888">
        <ele>1793.9</ele>
        <time>2021-03-14T14:25:16Z</time>
      </trkpt>
      <trkpt lat="44.67519" lon="6.79848">
        <ele>1793.6</ele>
        <time>2021-03-14T14:25:47Z</time>
      </trkpt>
      <trkpt lat="44.67523" lon="6.7981">
        <ele>1793</ele>
        <time>2021-03-14T14:26:17Z</time>
      </trkpt>
      <trkpt lat="44.67535" lon="6.79767">
        <ele>1794.2</ele>
        <time>2021-03-14T14:26:48Z</time>
      </trkpt>
      <trkpt lat="44.67545" lon="6.79722">
        <ele>1795.3</ele>
        <time>2021-03-14T14:27:19Z</time>
      </trkpt>
      <trkpt lat="44.67544" lon="6.79669">
        <ele>1794.9</ele>
        <time>2021-03-14T14:27:49Z</time>
      </trkpt>
      <trkpt lat="44.67548" lon="6.79628">
        <ele>1794.4</ele>
        <time>2021-03-14T14:28:19Z</time>
      </trkpt>
      <trkpt lat="44.67551" lon="6.79579">
        <ele>1793.8</ele>
        <time>2021-03-14T14:28:49Z</time>
      </trkpt>
      <trkpt lat="44.67539" lon="6.79527">
        <ele>1790.5</ele>
        <time>2021-03-14T14:29:20Z</time>
      </trkpt>
      <trkpt lat="44.67524" lon="6.79481">
        <ele>1785.6</ele>
        <time>2021-03-14T14:29:50Z</time>
      </trkpt>
      <trkpt lat="44.67503" lon="6.79444">
        <ele>1779.2</ele>
        <time>2021-03-14T14:30:21Z</time>
      </trkpt>
      <trkpt lat="44.6751" lon="6.79453">
        <ele>1781.6</ele>
        <time>2021-03-14T14:31:06Z</time>
      </trkpt>
      <trkpt lat="44.67526" lon="6.79476">
        <ele>1786.6</ele>
        <time>2021-03-14T14:31:37Z</time>
      </trkpt>
      <trkpt lat="44.67532" lon="6.79485">
        <ele>1788.3</ele>
        <time>2021-03-14T14:32:09Z</time>
      </trkpt>
      <trkpt lat="44.6754" lon="6.79495">
        <ele>1790.7</ele>
        <time>2021-03-14T14:32:39Z</time>
      </trkpt>
      <trkpt lat="44.67554" lon="6.79505">
        <ele>1795.4</ele>
        <time>2021-03-14T14:33:10Z</time>
      </trkpt>
      <trkpt lat="44.67567" lon="6.79513">
        <ele>1799.6</ele>
        <time>2021-03-14T14:33:41Z</time>
      </trkpt>
      <trkpt lat="44.67575" lon="6.79521">
        <ele>1801.8</ele>
        <time>2021-03-14T14:34:12Z</time>
      </trkpt>
      <trkpt lat="44.67586" lon="6.79524">
        <ele>1805.3</ele>
        <time>2021-03-14T14:34:42Z</time>
      </trkpt>
      <trkpt lat="44.67598" lon="6.79523">
        <ele>1809.8</ele>
        <time>2021-03-14T14:35:13Z</time>
      </trkpt>
      <trkpt lat="44.676" lon="6.79535">
        <ele>1809.9</ele>
        <time>2021-03-14T14:35:55Z</time>
      </trkpt>
      <trkpt lat="44.67604" lon="6.79558">
        <ele>1810.2</ele>
        <time>2021-03-14T14:36:26Z</time>
      </trkpt>
      <trkpt lat="44.67613" lon="6.79551">
        <ele>1814.2</ele>
        <time>2021-03-14T14:36:57Z</time>
      </trkpt>
      <trkpt lat="44.67622" lon="6.79543">
        <ele>1818</ele>
        <time>2021-03-14T14:37:27Z</time>
      </trkpt>
      <trkpt lat="44.67633" lon="6.7953">
        <ele>1822.6</ele>
        <time>2021-03-14T14:37:58Z</time>
      </trkpt>
      <trkpt lat="44.6763" lon="6.79504">
        <ele>1822.1</ele>
        <time>2021-03-14T14:38:28Z</time>
      </trkpt>
      <trkpt lat="44.67621" lon="6.79472">
        <ele>1821.5</ele>
        <time>2021-03-14T14:38:59Z</time>
      </trkpt>
      <trkpt lat="44.67619" lon="6.79459">
        <ele>1821.9</ele>
        <time>2021-03-14T14:39:49Z</time>
      </trkpt>
      <trkpt lat="44.67611" lon="6.79443">
        <ele>1820.4</ele>
        <time>2021-03-14T14:40:20Z</time>
      </trkpt>
      <trkpt lat="44.67619" lon="6.79459">
        <ele>1821.9</ele>
        <time>2021-03-14T14:40:50Z</time>
      </trkpt>
      <trkpt lat="44.67613" lon="6.7945">
        <ele>1820.5</ele>
        <time>2021-03-14T14:47:44Z</time>
      </trkpt>
      <trkpt lat="44.67607" lon="6.79439">
        <ele>1819.4</ele>
        <time>2021-03-14T14:48:58Z</time>
      </trkpt>
      <trkpt lat="44.67592" lon="6.79399">
        <ele>1817.3</ele>
        <time>2021-03-14T14:49:28Z</time>
      </trkpt>
      <trkpt lat="44.67575" lon="6.79373">
        <ele>1813.1</ele>
        <time>2021-03-14T14:49:59Z</time>
      </trkpt>
      <trkpt lat="44.67557" lon="6.79333">
        <ele>1810.2</ele>
        <time>2021-03-14T14:50:29Z</time>
      </trkpt>
      <trkpt lat="44.6754" lon="6.79293">
        <ele>1809.7</ele>
        <time>2021-03-14T14:51:00Z</time>
      </trkpt>
      <trkpt lat="44.67534" lon="6.79256">
        <ele>1812.5</ele>
        <time>2021-03-14T14:51:31Z</time>
      </trkpt>
      <trkpt lat="44.67537" lon="6.79243">
        <ele>1814.6</ele>
        <time>2021-03-14T14:53:07Z</time>
      </trkpt>
      <trkpt lat="44.67543" lon="6.792">
        <ele>1818.9</ele>
        <time>2021-03-14T14:53:37Z</time>
      </trkpt>
      <trkpt lat="44.67548" lon="6.79147">
        <ele>1823.3</ele>
        <time>2021-03-14T14:54:08Z</time>
      </trkpt>
      <trkpt lat="44.67553" lon="6.79094">
        <ele>1826.7</ele>
        <time>2021-03-14T14:54:39Z</time>
      </trkpt>
      <trkpt lat="44.67536" lon="6.79051">
        <ele>1820</ele>
        <time>2021-03-14T14:55:10Z</time>
      </trkpt>
      <trkpt lat="44.67523" lon="6.79015">
        <ele>1814.5</ele>
        <time>2021-03-14T14:55:40Z</time>
      </trkpt>
      <trkpt lat="44.67532" lon="6.78971">
        <ele>1817.5</ele>
        <time>2021-03-14T14:56:11Z</time>
      </trkpt>
      <trkpt lat="44.67525" lon="6.78925">
        <ele>1813.2</ele>
        <time>2021-03-14T14:56:41Z</time>
      </trkpt>
      <trkpt lat="44.67499" lon="6.78895">
        <ele>1802</ele>
        <time>2021-03-14T14:57:12Z</time>
      </trkpt>
      <trkpt lat="44.67479" lon="6.78861">
        <ele>1793.8</ele>
        <time>2021-03-14T14:57:43Z</time>
      </trkpt>
      <trkpt lat="44.67469" lon="6.78819">
        <ele>1791.5</ele>
        <time>2021-03-14T14:58:14Z</time>
      </trkpt>
      <trkpt lat="44.67468" lon="6.7877">
        <ele>1795.3</ele>
        <time>2021-03-14T14:58:44Z</time>
      </trkpt>
      <trkpt lat="44.67458" lon="6.78723">
        <ele>1797</ele>
        <time>2021-03-14T14:59:15Z</time>
      </trkpt>
      <trkpt lat="44.67429" lon="6.78697">
        <ele>1788.7</ele>
        <time>2021-03-14T14:59:46Z</time>
      </trkpt>
      <trkpt lat="44.67404" lon="6.78666">
        <ele>1782.2</ele>
        <time>2021-03-14T15:00:17Z</time>
      </trkpt>
      <trkpt lat="44.67378" lon="6.78638">
        <ele>1771.7</ele>
        <time>2021-03-14T15:00:48Z</time>
      </trkpt>
      <trkpt lat="44.67381" lon="6.78596">
        <ele>1778.3</ele>
        <time>2021-03-14T15:01:19Z</time>
      </trkpt>
      <trkpt lat="44.67371" lon="6.78554">
        <ele>1778.2</ele>
        <time>2021-03-14T15:01:50Z</time>
      </trkpt>
      <trkpt lat="44.67354" lon="6.78511">
        <ele>1774.3</ele>
        <time>2021-03-14T15:02:21Z</time>
      </trkpt>
      <trkpt lat="44.67337" lon="6.78468">
        <ele>1770.7</ele>
        <time>2021-03-14T15:02:52Z</time>
      </trkpt>
      <trkpt lat="44.67332" lon="6.78418">
        <ele>1774.2</ele>
        <time>2021-03-14T15:03:22Z</time>
      </trkpt>
      <trkpt lat="44.6731" lon="6.78382">
        <ele>1771.1</ele>
        <time>2021-03-14T15:03:53Z</time>
      </trkpt>
      <trkpt lat="44.67292" lon="6.78349">
        <ele>1769.7</ele>
        <time>2021-03-14T15:04:23Z</time>
      </trkpt>
      <trkpt lat="44.67262" lon="6.78328">
        <ele>1759.2</ele>
        <time>2021-03-14T15:04:54Z</time>
      </trkpt>
      <trkpt lat="44.67239" lon="6.783">
        <ele>1750.9</ele>
        <time>2021-03-14T15:05:24Z</time>
      </trkpt>
      <trkpt lat="44.6723" lon="6.78256">
        <ele>1750.8</ele>
        <time>2021-03-14T15:05:54Z</time>
      </trkpt>
      <trkpt lat="44.67224" lon="6.78217">
        <ele>1744.8</ele>
        <time>2021-03-14T15:06:25Z</time>
      </trkpt>
      <trkpt lat="44.6723" lon="6.7817">
        <ele>1741.7</ele>
        <time>2021-03-14T15:06:55Z</time>
      </trkpt>
      <trkpt lat="44.67255" lon="6.78138">
        <ele>1750.4</ele>
        <time>2021-03-14T15:07:26Z</time>
      </trkpt>
      <trkpt lat="44.67234" lon="6.78095">
        <ele>1742</ele>
        <time>2021-03-14T15:07:56Z</time>
      </trkpt>
      <trkpt lat="44.6722" lon="6.7808">
        <ele>1737.1</ele>
        <time>2021-03-14T15:08:27Z</time>
      </trkpt>
      <trkpt lat="44.67211" lon="6.7808">
        <ele>1734.2</ele>
        <time>2021-03-14T15:09:15Z</time>
      </trkpt>
      <trkpt lat="44.6719" lon="6.78063">
        <ele>1726.6</ele>
        <time>2021-03-14T15:09:46Z</time>
      </trkpt>
      <trkpt lat="44.67176" lon="6.78045">
        <ele>1721.2</ele>
        <time>2021-03-14T15:10:16Z</time>
      </trkpt>
      <trkpt lat="44.67172" lon="6.78018">
        <ele>1718.6</ele>
        <time>2021-03-14T15:10:46Z</time>
      </trkpt>
      <trkpt lat="44.67179" lon="6.7801">
        <ele>1720.5</ele>
        <time>2021-03-14T15:11:30Z</time>
      </trkpt>
      <trkpt lat="44.67204" lon="6.77978">
        <ele>1722.1</ele>
        <time>2021-03-14T15:12:01Z</time>
      </trkpt>
      <trkpt lat="44.67225" lon="6.77947">
        <ele>1719.8</ele>
        <time>2021-03-14T15:12:31Z</time>
      </trkpt>
      <trkpt lat="44.67211" lon="6.77943">
        <ele>1714.5</ele>
        <time>2021-03-14T15:13:01Z</time>
      </trkpt>
      <trkpt lat="44.67183" lon="6.77974">
        <ele>1714.5</ele>
        <time>2021-03-14T15:13:32Z</time>
      </trkpt>
      <trkpt lat="44.67148" lon="6.77978">
        <ele>1705.4</ele>
        <time>2021-03-14T15:14:03Z</time>
      </trkpt>
      <trkpt lat="44.67116" lon="6.77984">
        <ele>1698.1</ele>
        <time>2021-03-14T15:14:33Z</time>
      </trkpt>
      <trkpt lat="44.6711" lon="6.78025">
        <ele>1699.5</ele>
        <time>2021-03-14T15:15:03Z</time>
      </trkpt>
      <trkpt lat="44.67112" lon="6.78065">
        <ele>1699.8</ele>
        <time>2021-03-14T15:15:33Z</time>
      </trkpt>
      <trkpt lat="44.67125" lon="6.78109">
        <ele>1703</ele>
        <time>2021-03-14T15:16:04Z</time>
      </trkpt>
      <trkpt lat="44.67099" lon="6.78084">
        <ele>1694.8</ele>
        <time>2021-03-14T15:16:34Z</time>
      </trkpt>
      <trkpt lat="44.67065" lon="6.78069">
        <ele>1684.2</ele>
        <time>2021-03-14T15:17:05Z</time>
      </trkpt>
      <trkpt lat="44.67046" lon="6.78031">
        <ele>1678.9</ele>
        <time>2021-03-14T15:17:35Z</time>
      </trkpt>
      <trkpt lat="44.67047" lon="6.77986">
        <ele>1677.7</ele>
        <time>2021-03-14T15:18:06Z</time>
      </trkpt>
      <trkpt lat="44.67047" lon="6.77958">
        <ele>1674.4</ele>
        <time>2021-03-14T15:18:37Z</time>
      </trkpt>
      <trkpt lat="44.67039" lon="6.7797">
        <ele>1673.5</ele>
        <time>2021-03-14T15:19:07Z</time>
      </trkpt>
      <trkpt lat="44.67035" lon="6.77982">
        <ele>1673.4</ele>
        <time>2021-03-14T15:20:02Z</time>
      </trkpt>
      <trkpt lat="44.67024" lon="6.77998">
        <ele>1671.2</ele>
        <time>2021-03-14T15:20:33Z</time>
      </trkpt>
      <trkpt lat="44.67018" lon="6.77989">
        <ele>1668.5</ele>
        <time>2021-03-14T15:21:10Z</time>
      </trkpt>
      <trkpt lat="44.67012" lon="6.77998">
        <ele>1667.1</ele>
        <time>2021-03-14T15:22:19Z</time>
      </trkpt>
      <trkpt lat="44.67003" lon="6.78015">
        <ele>1664.5</ele>
        <time>2021-03-14T15:22:49Z</time>
      </trkpt>
      <trkpt lat="44.66987" lon="6.78017">
        <ele>1664.1</ele>
        <time>2021-03-14T15:23:20Z</time>
      </trkpt>
      <trkpt lat="44.66967" lon="6.77982">
        <ele>1661.7</ele>
        <time>2021-03-14T15:23:50Z</time>
      </trkpt>
      <trkpt lat="44.66951" lon="6.77955">
        <ele>1658.8</ele>
        <time>2021-03-14T15:24:20Z</time>
      </trkpt>
      <trkpt lat="44.66945" lon="6.7794">
        <ele>1657</ele>
        <time>2021-03-14T15:24:51Z</time>
      </trkpt>
      <trkpt lat="44.66933" lon="6.77926">
        <ele>1654.6</ele>
        <time>2021-03-14T15:25:21Z</time>
      </trkpt>
      <trkpt lat="44.66909" lon="6.77896">
        <ele>1652.2</ele>
        <time>2021-03-14T15:25:52Z</time>
      </trkpt>
      <trkpt lat="44.66891" lon="6.77857">
        <ele>1651.8</ele>
        <time>2021-03-14T15:26:23Z</time>
      </trkpt>
      <trkpt lat="44.66877" lon="6.77866">
        <ele>1652.5</ele>
        <time>2021-03-14T15:26:54Z</time>
      </trkpt>
      <trkpt lat="44.66874" lon="6.77854">
        <ele>1652</ele>
        <time>2021-03-14T15:28:45Z</time>
      </trkpt>
      <trkpt lat="44.66853" lon="6.77825">
        <ele>1650.6</ele>
        <time>2021-03-14T15:29:16Z</time>
      </trkpt>
      <trkpt lat="44.66837" lon="6.77805">
        <ele>1649.7</ele>
        <time>2021-03-14T15:29:47Z</time>
      </trkpt>
      <trkpt lat="44.66829" lon="6.77801">
        <ele>1649.3</ele>
        <time>2021-03-14T15:31:22Z</time>
      </trkpt>
      <trkpt lat="44.6682" lon="6.77797">
        <ele>1648.8</ele>
        <time>2021-03-14T15:32:45Z</time>
      </trkpt>
      <trkpt lat="44.66796" lon="6.77791">
        <ele>1647.9</ele>
        <time>2021-03-14T15:33:16Z</time>
      </trkpt>
      <trkpt lat="44.66798" lon="6.77758">
        <ele>1646.8</ele>
        <time>2021-03-14T15:33:47Z</time>
      </trkpt>
      <trkpt lat="44.66803" lon="6.77745">
        <ele>1646.5</ele>
        <time>2021-03-14T15:34:17Z</time>
      </trkpt>
      <trkpt lat="44.66805" lon="6.77759">
        <ele>1647</ele>
        <time>2021-03-14T15:35:35Z</time>
      </trkpt>
      <trkpt lat="44.66806" lon="6.77791">
        <ele>1648.2</ele>
        <time>2021-03-14T15:36:06Z</time>
      </trkpt>
      <trkpt lat="44.668" lon="6.77764">
        <ele>1647.1</ele>
        <time>2021-03-14T15:36:37Z</time>
      </trkpt>
      <trkpt lat="44.66808" lon="6.77731">
        <ele>1646</ele>
        <time>2021-03-14T15:37:07Z</time>
      </trkpt>
      <trkpt lat="44.66803" lon="6.77741">
        <ele>1646.3</ele>
        <time>2021-03-14T15:37:39Z</time>
      </trkpt>
      <trkpt lat="44.66798" lon="6.77759">
        <ele>1646.9</ele>
        <time>2021-03-14T15:39:09Z</time>
      </trkpt>
      <trkpt lat="44.66794" lon="6.77772">
        <ele>1647.2</ele>
        <time>2021-03-14T15:39:39Z</time>
      </trkpt>
      <trkpt lat="44.66803" lon="6.77765">
        <ele>1647.2</ele>
        <time>2021-03-14T15:40:13Z</time>
      </trkpt>
      <trkpt lat="44.66817" lon="6.77754">
        <ele>1647</ele>
        <time>2021-03-14T15:40:44Z</time>
      </trkpt>
      <trkpt lat="44.66809" lon="6.77744">
        <ele>1646.5</ele>
        <time>2021-03-14T15:41:14Z</time>
      </trkpt>
      <trkpt lat="44.66785" lon="6.77718">
        <ele>1645.6</ele>
        <time>2021-03-14T15:41:45Z</time>
      </trkpt>
      <trkpt lat="44.6678" lon="6.77728">
        <ele>1645.8</ele>
        <time>2021-03-14T15:42:16Z</time>
      </trkpt>
      <trkpt lat="44.66772" lon="6.77716">
        <ele>1645.5</ele>
        <time>2021-03-14T15:42:47Z</time>
      </trkpt>
      <trkpt lat="44.6677" lon="6.77672">
        <ele>1644.6</ele>
        <time>2021-03-14T15:43:17Z</time>
      </trkpt>
      <trkpt lat="44.6677" lon="6.77727">
        <ele>1645.8</ele>
        <time>2021-03-14T15:43:48Z</time>
      </trkpt>
      <trkpt lat="44.66778" lon="6.77733">
        <ele>1645.9</ele>
        <time>2021-03-14T15:44:21Z</time>
      </trkpt>
      <trkpt lat="44.66805" lon="6.77757">
        <ele>1646.9</ele>
        <time>2021-03-14T15:44:51Z</time>
      </trkpt>
      <trkpt lat="44.66809" lon="6.77724">
        <ele>1645.7</ele>
        <time>2021-03-14T15:47:13Z</time>
      </trkpt>
      <trkpt lat="44.66838" lon="6.77712">
        <ele>1645.3</ele>
        <time>2021-03-14T15:47:43Z</time>
      </trkpt>
      <trkpt lat="44.66862" lon="6.77696">
        <ele>1645.1</ele>
        <time>2021-03-14T15:48:13Z</time>
      </trkpt>
      <trkpt lat="44.66894" lon="6.77711">
        <ele>1646.6</ele>
        <time>2021-03-14T15:48:43Z</time>
      </trkpt>
      <trkpt lat="44.66924" lon="6.77728">
        <ele>1648.5</ele>
        <time>2021-03-14T15:49:13Z</time>
      </trkpt>
      <trkpt lat="44.6696" lon="6.77721">
        <ele>1650.7</ele>
        <time>2021-03-14T15:49:44Z</time>
      </trkpt>
      <trkpt lat="44.66992" lon="6.77715">
        <ele>1652.7</ele>
        <time>2021-03-14T15:50:15Z</time>
      </trkpt>
      <trkpt lat="44.67007" lon="6.77748">
        <ele>1656.2</ele>
        <time>2021-03-14T15:50:45Z</time>
      </trkpt>
      <trkpt lat="44.67025" lon="6.77783">
        <ele>1659.7</ele>
        <time>2021-03-14T15:51:16Z</time>
      </trkpt>
      <trkpt lat="44.67047" lon="6.77813">
        <ele>1663.4</ele>
        <time>2021-03-14T15:51:47Z</time>
      </trkpt>
      <trkpt lat="44.67073" lon="6.77813">
        <ele>1667.6</ele>
        <time>2021-03-14T15:52:18Z</time>
      </trkpt>
      <trkpt lat="44.67071" lon="6.778">
        <ele>1667.4</ele>
        <time>2021-03-14T15:52:59Z</time>
      </trkpt>
      <trkpt lat="44.67075" lon="6.77759">
        <ele>1668.4</ele>
        <time>2021-03-14T15:53:30Z</time>
      </trkpt>
      <trkpt lat="44.6708" lon="6.77726">
        <ele>1667.7</ele>
        <time>2021-03-14T15:54:00Z</time>
      </trkpt>
      <trkpt lat="44.67091" lon="6.77678">
        <ele>1666.8</ele>
        <time>2021-03-14T15:54:30Z</time>
      </trkpt>
    </trkseg>
  </trk>
</gpx>